Thunder radar more information blitzortung!


Radar de pluja more information rain snow radar


Visita la nostra xarxa de llocs de meteo:

Template documentation
and downloads

And another site



Extreme low temperature From: 13-12-2017 09:00 Until: 09:59 warning for: Extreme low temperature Level: Yellow info button

Pagina Historial Weather Underground text

Diari Resum Juny 4, 2017 Unitats:  Tant    Imperial   Mètric
« Previous Dia
SegĂźent Dia »
Diari Setmana Mensual Anual Personalitzada
  Maxima: Minima: Media:
Temperatura: 76.1 °F /  24.5 °C 59 °F /  15.0 °C 68.9 °F /  20.5 °C
Punt de rosada: 59.5 °F /  15.3 °C 50.5 °F /  10.3 °C 56.8 °F /  13.8 °C
Humitat: 89 % 51 % 67 %
Wind Speed: 8.1 mph /  13.0 km/h - 2.3 mph /  3.7 km/h
RĂ fegues de vent: 8.1 mph /  13.0 km/h - -
Vent:- - South
Pression baro: 30.1 in /  1017.8 hPa 29.9 in /  1012.8 hPa -
Precipitacions: 0.12 in /  3.0 mm    
Historical Graphs
 
 
Dades de taula per Juny 4, 2017
Temps Temperatura Punt de rosada Pression baro Vent Wind Speed RĂ fegues de vent Humitat Rainfall Rate (Hourly)
00:00 68.2 °F /  20.1 °C 50.9 °F /  10.5 °C 30 in /  1015.8 hPa ENE 2.9 mph /  4.7 km/h 2.9 mph /  4.7 km/h 54 % 0 in /  0.0 mm
00:05 67.8 °F /  19.9 °C 50.5 °F /  10.3 °C 30 in /  1016.8 hPa NE 6.9 mph /  11.1 km/h 6.9 mph /  11.1 km/h 54 % 0 in /  0.0 mm
00:10 63.1 °F /  17.3 °C 54 °F /  12.2 °C 30 in /  1015.8 hPa NNE 2 mph /  3.2 km/h 3 mph /  4.8 km/h 72 % 0 in /  0.0 mm
00:20 63 °F /  17.2 °C 53.4 °F /  11.9 °C 30 in /  1015.8 hPa North 1 mph /  1.6 km/h 3 mph /  4.8 km/h 71 % 0 in /  0.0 mm
00:30 62.8 °F /  17.1 °C 53.2 °F /  11.8 °C 30 in /  1015.8 hPa WNW 1 mph /  1.6 km/h 2 mph /  3.2 km/h 71 % 0 in /  0.0 mm
00:40 62.4 °F /  16.9 °C 53.6 °F /  12.0 °C 30 in /  1016.8 hPa WSW 1 mph /  1.6 km/h 2 mph /  3.2 km/h 73 % 0 in /  0.0 mm
00:50 62.4 °F /  16.9 °C 53.6 °F /  12.0 °C 30 in /  1015.8 hPa SW 1 mph /  1.6 km/h 2 mph /  3.2 km/h 73 % 0 in /  0.0 mm
01:00 62.4 °F /  16.9 °C 53.6 °F /  12.0 °C 30 in /  1015.8 hPa Calm     73 % 0 in /  0.0 mm
01:10 62.4 °F /  16.9 °C 53.6 °F /  12.0 °C 30 in /  1015.8 hPa WSW 1 mph /  1.6 km/h 2 mph /  3.2 km/h 73 % 0 in /  0.0 mm
01:20 62.2 °F /  16.8 °C 53.8 °F /  12.1 °C 30 in /  1015.8 hPa WSW 1 mph /  1.6 km/h 2 mph /  3.2 km/h 74 % 0 in /  0.0 mm
01:30 62.1 °F /  16.7 °C 54 °F /  12.2 °C 30 in /  1015.8 hPa WSW 1 mph /  1.6 km/h 2 mph /  3.2 km/h 75 % 0 in /  0.0 mm
01:40 61.9 °F /  16.6 °C 54 °F /  12.2 °C 30 in /  1015.8 hPa WSW 1 mph /  1.6 km/h 2 mph /  3.2 km/h 75 % 0 in /  0.0 mm
01:50 61.9 °F /  16.6 °C 54.1 °F /  12.3 °C 30 in /  1015.8 hPa WSW 2 mph /  3.2 km/h 2 mph /  3.2 km/h 76 % 0 in /  0.0 mm
02:00 62.2 °F /  16.8 °C 54.9 °F /  12.7 °C 30 in /  1015.8 hPa WSW 1 mph /  1.6 km/h 2 mph /  3.2 km/h 77 % 0 in /  0.0 mm
02:10 62.6 °F /  17.0 °C 54.9 °F /  12.7 °C 30 in /  1015.8 hPa Calm   2 mph /  3.2 km/h 76 % 0 in /  0.0 mm
02:20 62.6 °F /  17.0 °C 54.9 °F /  12.7 °C 30 in /  1015.8 hPa Calm   1 mph /  1.6 km/h 76 % 0 in /  0.0 mm
02:30 63 °F /  17.2 °C 55.2 °F /  12.9 °C 30 in /  1015.8 hPa Calm   2 mph /  3.2 km/h 76 % 0 in /  0.0 mm
02:40 63.1 °F /  17.3 °C 55 °F /  12.8 °C 30 in /  1015.8 hPa WSW 1 mph /  1.6 km/h 1 mph /  1.6 km/h 75 % 0 in /  0.0 mm
02:50 63.5 °F /  17.5 °C 55.4 °F /  13.0 °C 30 in /  1015.8 hPa Calm   2 mph /  3.2 km/h 75 % 0 in /  0.0 mm
03:00 63.7 °F /  17.6 °C 55.6 °F /  13.1 °C 30 in /  1015.8 hPa SW 1 mph /  1.6 km/h 2 mph /  3.2 km/h 75 % 0 in /  0.0 mm
03:10 64.2 °F /  17.9 °C 56.1 °F /  13.4 °C 30 in /  1015.8 hPa Calm   2 mph /  3.2 km/h 75 % 0 in /  0.0 mm
03:20 64.9 °F /  18.3 °C 56.5 °F /  13.6 °C 30 in /  1016.8 hPa Calm   1 mph /  1.6 km/h 74 % 0 in /  0.0 mm
03:30 65.7 °F /  18.7 °C 56.8 °F /  13.8 °C 30 in /  1016.8 hPa Calm   2 mph /  3.2 km/h 73 % 0 in /  0.0 mm
03:40 65.7 °F /  18.7 °C 56.8 °F /  13.8 °C 30 in /  1016.8 hPa NW 2 mph /  3.2 km/h 2 mph /  3.2 km/h 73 % 0 in /  0.0 mm
03:50 65.5 °F /  18.6 °C 55.8 °F /  13.2 °C 30 in /  1016.8 hPa NNE 2 mph /  3.2 km/h 3 mph /  4.8 km/h 71 % 0 in /  0.0 mm
04:00 66.2 °F /  19.0 °C 55.8 °F /  13.2 °C 30 in /  1016.8 hPa NNE 1 mph /  1.6 km/h 1 mph /  1.6 km/h 69 % 0 in /  0.0 mm
04:10 66.2 °F /  19.0 °C 56.1 °F /  13.4 °C 30 in /  1016.8 hPa NE 1 mph /  1.6 km/h 2 mph /  3.2 km/h 70 % 0 in /  0.0 mm
04:20 66.6 °F /  19.2 °C 56.8 °F /  13.8 °C 30.1 in /  1017.8 hPa ENE 1 mph /  1.6 km/h 2 mph /  3.2 km/h 71 % 0 in /  0.0 mm
04:30 67.1 °F /  19.5 °C 57.4 °F /  14.1 °C 30.1 in /  1017.8 hPa Calm   2 mph /  3.2 km/h 71 % 0 in /  0.0 mm
04:40 67.6 °F /  19.8 °C 57.6 °F /  14.2 °C 30 in /  1016.8 hPa SW 1 mph /  1.6 km/h 2 mph /  3.2 km/h 70 % 0 in /  0.0 mm
04:50 67.3 °F /  19.6 °C 57.6 °F /  14.2 °C 30 in /  1016.8 hPa ESE 3 mph /  4.8 km/h 4 mph /  6.4 km/h 71 % 0 in /  0.0 mm
05:00 67.6 °F /  19.8 °C 57 °F /  13.9 °C 30 in /  1016.8 hPa East 1 mph /  1.6 km/h 2 mph /  3.2 km/h 69 % 0 in /  0.0 mm
05:10 67.8 °F /  19.9 °C 56.5 °F /  13.6 °C 30 in /  1016.8 hPa NE 3 mph /  4.8 km/h 4 mph /  6.4 km/h 67 % 0 in /  0.0 mm
05:20 68 °F /  20.0 °C 56.1 °F /  13.4 °C 30 in /  1015.8 hPa NE 3 mph /  4.8 km/h 4 mph /  6.4 km/h 66 % 0 in /  0.0 mm
05:30 68.4 °F /  20.2 °C 56.7 °F /  13.7 °C 30 in /  1015.8 hPa ENE 2 mph /  3.2 km/h 4 mph /  6.4 km/h 66 % 0 in /  0.0 mm
05:40 68.7 °F /  20.4 °C 56.8 °F /  13.8 °C 30.1 in /  1017.8 hPa SW 1 mph /  1.6 km/h 3 mph /  4.8 km/h 66 % 0 in /  0.0 mm
05:50 68.7 °F /  20.4 °C 56.8 °F /  13.8 °C 30 in /  1016.8 hPa WSW 2 mph /  3.2 km/h 4 mph /  6.4 km/h 66 % 0 in /  0.0 mm
06:00 68.7 °F /  20.4 °C 56.5 °F /  13.6 °C 30 in /  1016.8 hPa West 3 mph /  4.8 km/h 8 mph /  12.9 km/h 65 % 0 in /  0.0 mm
06:10 69.6 °F /  20.9 °C 57.4 °F /  14.1 °C 30.1 in /  1017.8 hPa WNW 2 mph /  3.2 km/h 5 mph /  8.0 km/h 65 % 0 in /  0.0 mm
06:20 70.7 °F /  21.5 °C 57.9 °F /  14.4 °C 30.1 in /  1017.8 hPa West 2 mph /  3.2 km/h 4 mph /  6.4 km/h 64 % 0 in /  0.0 mm
06:30 72.7 °F /  22.6 °C 58.8 °F /  14.9 °C 30.1 in /  1017.8 hPa West 2 mph /  3.2 km/h 3 mph /  4.8 km/h 62 % 0 in /  0.0 mm
06:35 72.7 °F /  22.6 °C 57.9 °F /  14.4 °C 30 in /  1016.8 hPa West 2 mph /  3.2 km/h 5 mph /  8.0 km/h 60 % 0 in /  0.0 mm
11:36 72.9 °F /  22.7 °C 58.3 °F /  14.6 °C 30 in /  1016.8 hPa ESE 5.8 mph /  9.3 km/h 5.8 mph /  9.3 km/h 60 % 0 in /  0.0 mm
11:41 73 °F /  22.8 °C 57.9 °F /  14.4 °C 30 in /  1016.8 hPa WNW 5.8 mph /  9.3 km/h 5.8 mph /  9.3 km/h 59 % 0 in /  0.0 mm
11:46 73.6 °F /  23.1 °C 58.5 °F /  14.7 °C 30 in /  1016.8 hPa NNE 3.6 mph /  5.8 km/h 3.6 mph /  5.8 km/h 59 % 0 in /  0.0 mm
11:51 73 °F /  22.8 °C 57.4 °F /  14.1 °C 30 in /  1015.8 hPa East 3.5 mph /  5.6 km/h 3.5 mph /  5.6 km/h 58 % 0 in /  0.0 mm
11:56 73 °F /  22.8 °C 57.4 °F /  14.1 °C 30 in /  1015.8 hPa NNE 4.6 mph /  7.4 km/h 4.6 mph /  7.4 km/h 58 % 0 in /  0.0 mm
12:01 73.6 °F /  23.1 °C 57.9 °F /  14.4 °C 30 in /  1015.8 hPa WNW 2.3 mph /  3.7 km/h 2.3 mph /  3.7 km/h 58 % 0 in /  0.0 mm
12:06 73.9 °F /  23.3 °C 58.3 °F /  14.6 °C 30 in /  1015.8 hPa NW 3.5 mph /  5.6 km/h 3.5 mph /  5.6 km/h 58 % 0 in /  0.0 mm
12:11 74.3 °F /  23.5 °C 58.1 °F /  14.5 °C 30 in /  1015.8 hPa NNE 3.5 mph /  5.6 km/h 3.5 mph /  5.6 km/h 57 % 0 in /  0.0 mm
12:16 73.2 °F /  22.9 °C 56.7 °F /  13.7 °C 30 in /  1015.8 hPa NE 5.8 mph /  9.3 km/h 5.8 mph /  9.3 km/h 56 % 0 in /  0.0 mm
12:21 72.9 °F /  22.7 °C 56.7 °F /  13.7 °C 30 in /  1015.8 hPa ENE 4.7 mph /  7.6 km/h 4.7 mph /  7.6 km/h 57 % 0 in /  0.0 mm
12:26 73.9 °F /  23.3 °C 57.4 °F /  14.1 °C 30 in /  1015.8 hPa East 2.3 mph /  3.7 km/h 2.3 mph /  3.7 km/h 56 % 0 in /  0.0 mm
12:31 74.1 °F /  23.4 °C 56.8 °F /  13.8 °C 30 in /  1015.8 hPa NW 4.6 mph /  7.4 km/h 4.6 mph /  7.4 km/h 55 % 0 in /  0.0 mm
12:36 73.6 °F /  23.1 °C 56.5 °F /  13.6 °C 30 in /  1015.8 hPa WSW 3.5 mph /  5.6 km/h 3.5 mph /  5.6 km/h 55 % 0 in /  0.0 mm
12:41 73.2 °F /  22.9 °C 56.7 °F /  13.7 °C 30 in /  1015.8 hPa NNE 4.6 mph /  7.4 km/h 4.6 mph /  7.4 km/h 56 % 0 in /  0.0 mm
12:45 64.8 °F /  18.2 °C 59.2 °F /  15.1 °C 29.9 in /  1012.8 hPa WNW 3 mph /  4.8 km/h 8 mph /  12.9 km/h 82 % 0 in /  0.0 mm
12:46 73.6 °F /  23.1 °C 56.8 °F /  13.8 °C 30 in /  1015.8 hPa NE 3.5 mph /  5.6 km/h 3.5 mph /  5.6 km/h 56 % 0 in /  0.0 mm
12:51 73.8 °F /  23.2 °C 56.7 °F /  13.7 °C 30 in /  1015.8 hPa ENE 4.6 mph /  7.4 km/h 4.6 mph /  7.4 km/h 55 % 0 in /  0.0 mm
12:56 74.5 °F /  23.6 °C 57.4 °F /  14.1 °C 30 in /  1015.8 hPa NNE 3.5 mph /  5.6 km/h 3.5 mph /  5.6 km/h 55 % 0 in /  0.0 mm
13:01 74.5 °F /  23.6 °C 57.4 °F /  14.1 °C 30 in /  1015.8 hPa East 4.6 mph /  7.4 km/h 4.6 mph /  7.4 km/h 55 % 0 in /  0.0 mm
13:06 74.7 °F /  23.7 °C 56.8 °F /  13.8 °C 30 in /  1015.8 hPa NNE 5.8 mph /  9.3 km/h 5.8 mph /  9.3 km/h 54 % 0 in /  0.0 mm
13:11 75.6 °F /  24.2 °C 57.2 °F /  14.0 °C 30 in /  1015.8 hPa NW 4.6 mph /  7.4 km/h 4.6 mph /  7.4 km/h 53 % 0 in /  0.0 mm
13:16 74.7 °F /  23.7 °C 56.5 °F /  13.6 °C 30 in /  1015.8 hPa East 2.3 mph /  3.7 km/h 2.6 mph /  4.2 km/h 53 % 0 in /  0.0 mm
13:21 74.3 °F /  23.5 °C 56.1 °F /  13.4 °C 30 in /  1015.8 hPa NE 3.5 mph /  5.6 km/h 3.5 mph /  5.6 km/h 53 % 0 in /  0.0 mm
13:26 73.8 °F /  23.2 °C 55 °F /  12.8 °C 30 in /  1015.8 hPa NNW 4.3 mph /  6.9 km/h 4.3 mph /  6.9 km/h 52 % 0 in /  0.0 mm
13:31 73.9 °F /  23.3 °C 55.8 °F /  13.2 °C 30 in /  1015.8 hPa NE 2.3 mph /  3.7 km/h 2.3 mph /  3.7 km/h 53 % 0 in /  0.0 mm
13:36 75.4 °F /  24.1 °C 56.5 °F /  13.6 °C 30 in /  1015.8 hPa SSW 2 mph /  3.2 km/h 2 mph /  3.2 km/h 52 % 0 in /  0.0 mm
13:41 76.1 °F /  24.5 °C 57.7 °F /  14.3 °C 30 in /  1015.8 hPa WSW 3.5 mph /  5.6 km/h 3.5 mph /  5.6 km/h 53 % 0 in /  0.0 mm
13:46 75.6 °F /  24.2 °C 56.7 °F /  13.7 °C 30 in /  1015.8 hPa SSW 5.8 mph /  9.3 km/h 5.8 mph /  9.3 km/h 52 % 0 in /  0.0 mm
13:51 75.2 °F /  24.0 °C 56.8 °F /  13.8 °C 30 in /  1015.8 hPa West 4.6 mph /  7.4 km/h 4.6 mph /  7.4 km/h 53 % 0 in /  0.0 mm
13:56 75 °F /  23.9 °C 56.7 °F /  13.7 °C 30 in /  1015.8 hPa West 3.5 mph /  5.6 km/h 3.5 mph /  5.6 km/h 53 % 0 in /  0.0 mm
14:01 74.8 °F /  23.8 °C 56.7 °F /  13.7 °C 30 in /  1015.8 hPa SW 3.5 mph /  5.6 km/h 3.5 mph /  5.6 km/h 53 % 0 in /  0.0 mm
14:06 74.8 °F /  23.8 °C 55.9 °F /  13.3 °C 30 in /  1015.8 hPa South 3.5 mph /  5.6 km/h 3.5 mph /  5.6 km/h 52 % 0 in /  0.0 mm
14:11 75.4 °F /  24.1 °C 55.9 °F /  13.3 °C 30 in /  1015.8 hPa WSW 4.6 mph /  7.4 km/h 4.6 mph /  7.4 km/h 51 % 0 in /  0.0 mm
14:16 75.2 °F /  24.0 °C 55.8 °F /  13.2 °C 30 in /  1015.8 hPa NW 4 mph /  6.4 km/h 4 mph /  6.4 km/h 51 % 0 in /  0.0 mm
14:18 75.4 °F /  24.1 °C 55.9 °F /  13.3 °C 30 in /  1015.8 hPa WSW 4.6 mph /  7.4 km/h 4.6 mph /  7.4 km/h 51 % 0 in /  0.0 mm
14:23 75.4 °F /  24.1 °C 55.9 °F /  13.3 °C 30 in /  1014.8 hPa West 2.4 mph /  3.9 km/h 2.4 mph /  3.9 km/h 51 % 0 in /  0.0 mm
14:28 75.4 °F /  24.1 °C 55.9 °F /  13.3 °C 30 in /  1014.8 hPa West 2.4 mph /  3.9 km/h 2.4 mph /  3.9 km/h 51 % 0 in /  0.0 mm
14:33 75.4 °F /  24.1 °C 55.9 °F /  13.3 °C 30 in /  1014.8 hPa West 2.4 mph /  3.9 km/h 2.4 mph /  3.9 km/h 51 % 0 in /  0.0 mm
14:38 75.4 °F /  24.1 °C 55.9 °F /  13.3 °C 30 in /  1014.8 hPa West 2.4 mph /  3.9 km/h 2.4 mph /  3.9 km/h 51 % 0 in /  0.0 mm
14:43 75.4 °F /  24.1 °C 55.9 °F /  13.3 °C 30 in /  1014.8 hPa West 2.4 mph /  3.9 km/h 2.4 mph /  3.9 km/h 51 % 0 in /  0.0 mm
14:48 75.4 °F /  24.1 °C 55.9 °F /  13.3 °C 30 in /  1014.8 hPa West 2.4 mph /  3.9 km/h 2.4 mph /  3.9 km/h 51 % 0 in /  0.0 mm
14:53 75.4 °F /  24.1 °C 55.9 °F /  13.3 °C 30 in /  1014.8 hPa West 2.4 mph /  3.9 km/h 2.4 mph /  3.9 km/h 51 % 0 in /  0.0 mm
14:58 75.4 °F /  24.1 °C 55.9 °F /  13.3 °C 30 in /  1014.8 hPa West 2.4 mph /  3.9 km/h 2.4 mph /  3.9 km/h 51 % 0 in /  0.0 mm
15:03 75.4 °F /  24.1 °C 55.9 °F /  13.3 °C 30 in /  1014.8 hPa West 2.4 mph /  3.9 km/h 2.4 mph /  3.9 km/h 51 % 0 in /  0.0 mm
15:08 75.4 °F /  24.1 °C 55.9 °F /  13.3 °C 30 in /  1014.8 hPa West 2.4 mph /  3.9 km/h 2.4 mph /  3.9 km/h 51 % 0 in /  0.0 mm
15:13 75.4 °F /  24.1 °C 55.9 °F /  13.3 °C 30 in /  1014.8 hPa West 2.4 mph /  3.9 km/h 2.4 mph /  3.9 km/h 51 % 0 in /  0.0 mm
15:18 75.4 °F /  24.1 °C 55.9 °F /  13.3 °C 30 in /  1014.8 hPa West 2.4 mph /  3.9 km/h 2.4 mph /  3.9 km/h 51 % 0 in /  0.0 mm
15:23 75.4 °F /  24.1 °C 55.9 °F /  13.3 °C 30 in /  1014.8 hPa West 2.4 mph /  3.9 km/h 2.4 mph /  3.9 km/h 51 % 0 in /  0.0 mm
15:28 75.4 °F /  24.1 °C 55.9 °F /  13.3 °C 30 in /  1014.8 hPa West 2.4 mph /  3.9 km/h 2.4 mph /  3.9 km/h 51 % 0 in /  0.0 mm
15:33 75.4 °F /  24.1 °C 55.9 °F /  13.3 °C 30 in /  1014.8 hPa West 2.4 mph /  3.9 km/h 2.4 mph /  3.9 km/h 51 % 0 in /  0.0 mm
15:38 75.4 °F /  24.1 °C 55.9 °F /  13.3 °C 30 in /  1014.8 hPa West 2.4 mph /  3.9 km/h 2.4 mph /  3.9 km/h 51 % 0 in /  0.0 mm
15:43 75.4 °F /  24.1 °C 55.9 °F /  13.3 °C 30 in /  1014.8 hPa West 2.4 mph /  3.9 km/h 2.4 mph /  3.9 km/h 51 % 0 in /  0.0 mm
15:48 75.4 °F /  24.1 °C 55.9 °F /  13.3 °C 30 in /  1014.8 hPa West 2.4 mph /  3.9 km/h 2.4 mph /  3.9 km/h 51 % 0 in /  0.0 mm
15:53 75.4 °F /  24.1 °C 55.9 °F /  13.3 °C 30 in /  1014.8 hPa West 2.4 mph /  3.9 km/h 2.4 mph /  3.9 km/h 51 % 0 in /  0.0 mm
15:58 75.4 °F /  24.1 °C 55.9 °F /  13.3 °C 30 in /  1014.8 hPa West 2.4 mph /  3.9 km/h 2.4 mph /  3.9 km/h 51 % 0 in /  0.0 mm
16:03 75.4 °F /  24.1 °C 55.9 °F /  13.3 °C 30 in /  1014.8 hPa West 2.4 mph /  3.9 km/h 2.4 mph /  3.9 km/h 51 % 0 in /  0.0 mm
16:08 75.4 °F /  24.1 °C 55.9 °F /  13.3 °C 30 in /  1014.8 hPa West 2.4 mph /  3.9 km/h 2.4 mph /  3.9 km/h 51 % 0 in /  0.0 mm
16:13 75.4 °F /  24.1 °C 55.9 °F /  13.3 °C 30 in /  1014.8 hPa West 2.4 mph /  3.9 km/h 2.4 mph /  3.9 km/h 51 % 0 in /  0.0 mm
16:18 75.4 °F /  24.1 °C 55.9 °F /  13.3 °C 30 in /  1014.8 hPa West 2.4 mph /  3.9 km/h 2.4 mph /  3.9 km/h 51 % 0 in /  0.0 mm
16:23 75.4 °F /  24.1 °C 55.9 °F /  13.3 °C 30 in /  1014.8 hPa West 2.4 mph /  3.9 km/h 2.4 mph /  3.9 km/h 51 % 0 in /  0.0 mm
16:28 75.4 °F /  24.1 °C 55.9 °F /  13.3 °C 30 in /  1014.8 hPa West 2.4 mph /  3.9 km/h 2.4 mph /  3.9 km/h 51 % 0 in /  0.0 mm
16:33 75.4 °F /  24.1 °C 55.9 °F /  13.3 °C 30 in /  1014.8 hPa West 2.4 mph /  3.9 km/h 2.4 mph /  3.9 km/h 51 % 0 in /  0.0 mm
16:38 75.4 °F /  24.1 °C 55.9 °F /  13.3 °C 30 in /  1014.8 hPa West 2.4 mph /  3.9 km/h 2.4 mph /  3.9 km/h 51 % 0 in /  0.0 mm
16:43 75.4 °F /  24.1 °C 55.9 °F /  13.3 °C 30 in /  1014.8 hPa West 2.4 mph /  3.9 km/h 2.4 mph /  3.9 km/h 51 % 0 in /  0.0 mm
16:48 75.4 °F /  24.1 °C 55.9 °F /  13.3 °C 30 in /  1014.8 hPa West 2.4 mph /  3.9 km/h 2.4 mph /  3.9 km/h 51 % 0 in /  0.0 mm
16:53 75.4 °F /  24.1 °C 55.9 °F /  13.3 °C 30 in /  1014.8 hPa West 2.4 mph /  3.9 km/h 2.4 mph /  3.9 km/h 51 % 0 in /  0.0 mm
16:58 75.4 °F /  24.1 °C 55.9 °F /  13.3 °C 30 in /  1014.8 hPa West 2.4 mph /  3.9 km/h 2.4 mph /  3.9 km/h 51 % 0 in /  0.0 mm
17:03 75.4 °F /  24.1 °C 55.9 °F /  13.3 °C 30 in /  1014.8 hPa West 2.4 mph /  3.9 km/h 2.4 mph /  3.9 km/h 51 % 0 in /  0.0 mm
17:08 75.4 °F /  24.1 °C 55.9 °F /  13.3 °C 30 in /  1014.8 hPa West 2.4 mph /  3.9 km/h 2.4 mph /  3.9 km/h 51 % 0 in /  0.0 mm
17:13 75.4 °F /  24.1 °C 55.9 °F /  13.3 °C 30 in /  1014.8 hPa West 2.4 mph /  3.9 km/h 2.4 mph /  3.9 km/h 51 % 0 in /  0.0 mm
17:18 75.4 °F /  24.1 °C 55.9 °F /  13.3 °C 30 in /  1014.8 hPa West 2.4 mph /  3.9 km/h 2.4 mph /  3.9 km/h 51 % 0 in /  0.0 mm
17:23 75.4 °F /  24.1 °C 55.9 °F /  13.3 °C 30 in /  1014.8 hPa West 2.4 mph /  3.9 km/h 2.4 mph /  3.9 km/h 51 % 0 in /  0.0 mm
17:28 75.4 °F /  24.1 °C 55.9 °F /  13.3 °C 30 in /  1014.8 hPa West 2.4 mph /  3.9 km/h 2.4 mph /  3.9 km/h 51 % 0 in /  0.0 mm
17:33 75.4 °F /  24.1 °C 55.9 °F /  13.3 °C 30 in /  1014.8 hPa West 2.4 mph /  3.9 km/h 2.4 mph /  3.9 km/h 51 % 0 in /  0.0 mm
17:38 75.4 °F /  24.1 °C 55.9 °F /  13.3 °C 30 in /  1014.8 hPa West 2.4 mph /  3.9 km/h 2.4 mph /  3.9 km/h 51 % 0 in /  0.0 mm
17:45 64.8 °F /  18.2 °C 59.2 °F /  15.1 °C 29.9 in /  1012.8 hPa WNW 8.1 mph /  13.0 km/h 8.1 mph /  13.0 km/h 82 % 0 in /  0.0 mm
17:50 64.9 °F /  18.3 °C 59 °F /  15.0 °C 29.9 in /  1013.8 hPa NNE 5.8 mph /  9.3 km/h 5.8 mph /  9.3 km/h 81 % 0.12 in /  3.0 mm
17:55 65.1 °F /  18.4 °C 59.2 °F /  15.1 °C 29.9 in /  1013.8 hPa ENE 4.6 mph /  7.4 km/h 4.6 mph /  7.4 km/h 81 % 0.12 in /  3.0 mm
18:00 65.3 °F /  18.5 °C 59.4 °F /  15.2 °C 29.9 in /  1013.8 hPa ENE 4.6 mph /  7.4 km/h 4.6 mph /  7.4 km/h 81 % 0.12 in /  3.0 mm
18:05 65.3 °F /  18.5 °C 59 °F /  15.0 °C 29.9 in /  1013.8 hPa NE 5.8 mph /  9.3 km/h 5.8 mph /  9.3 km/h 80 % 0.12 in /  3.0 mm
18:10 65.5 °F /  18.6 °C 58.8 °F /  14.9 °C 29.9 in /  1013.8 hPa NNE 3.5 mph /  5.6 km/h 3.5 mph /  5.6 km/h 79 % 0.12 in /  3.0 mm
18:11 65.5 °F /  18.6 °C 58.8 °F /  14.9 °C 29.9 in /  1013.8 hPa NNE 3.5 mph /  5.6 km/h 3.5 mph /  5.6 km/h 79 % 0.12 in /  3.0 mm
18:16 65.8 °F /  18.8 °C 59.5 °F /  15.3 °C 29.9 in /  1013.8 hPa East 4 mph /  6.4 km/h 4 mph /  6.4 km/h 80 % 0.12 in /  3.0 mm
18:21 65.7 °F /  18.7 °C 59 °F /  15.0 °C 29.9 in /  1013.8 hPa NNE 5.8 mph /  9.3 km/h 5.8 mph /  9.3 km/h 79 % 0.12 in /  3.0 mm
18:26 65.5 °F /  18.6 °C 58.5 °F /  14.7 °C 29.9 in /  1013.8 hPa NNE 6.9 mph /  11.1 km/h 6.9 mph /  11.1 km/h 78 % 0.12 in /  3.0 mm
18:31 66.4 °F /  19.1 °C 59.4 °F /  15.2 °C 29.9 in /  1013.8 hPa NNW 2.3 mph /  3.7 km/h 2.3 mph /  3.7 km/h 78 % 0.12 in /  3.0 mm
18:36 66.9 °F /  19.4 °C 59.5 °F /  15.3 °C 29.9 in /  1013.8 hPa North 3.8 mph /  6.1 km/h 3.8 mph /  6.1 km/h 77 % 0.12 in /  3.0 mm
18:41 67.3 °F /  19.6 °C 59.5 °F /  15.3 °C 29.9 in /  1013.8 hPa ENE 3.5 mph /  5.6 km/h 3.5 mph /  5.6 km/h 76 % 0.12 in /  3.0 mm
18:46 67.3 °F /  19.6 °C 59.2 °F /  15.1 °C 29.9 in /  1013.8 hPa NE 3.3 mph /  5.3 km/h 3.3 mph /  5.3 km/h 75 % 0.12 in /  3.0 mm
18:51 67.5 °F /  19.7 °C 58.8 °F /  14.9 °C 29.9 in /  1013.8 hPa NNE 3.6 mph /  5.8 km/h 3.6 mph /  5.8 km/h 74 % 0 in /  0.0 mm
18:56 67.3 °F /  19.6 °C 58.3 °F /  14.6 °C 29.9 in /  1013.8 hPa NE 3.5 mph /  5.6 km/h 3.5 mph /  5.6 km/h 73 % 0 in /  0.0 mm
19:01 67.6 °F /  19.8 °C 58.6 °F /  14.8 °C 29.9 in /  1013.8 hPa NE 2.3 mph /  3.7 km/h 2.3 mph /  3.7 km/h 73 % 0 in /  0.0 mm
19:06 67.6 °F /  19.8 °C 58.6 °F /  14.8 °C 29.9 in /  1012.8 hPa NE 3.5 mph /  5.6 km/h 3.5 mph /  5.6 km/h 73 % 0 in /  0.0 mm
19:11 67.6 °F /  19.8 °C 58.6 °F /  14.8 °C 29.9 in /  1012.8 hPa NNE 3.5 mph /  5.6 km/h 3.5 mph /  5.6 km/h 73 % 0 in /  0.0 mm
19:16 67.6 °F /  19.8 °C 58.3 °F /  14.6 °C 29.9 in /  1012.8 hPa East 2 mph /  3.2 km/h 2 mph /  3.2 km/h 72 % 0 in /  0.0 mm
19:21 67.6 °F /  19.8 °C 58.3 °F /  14.6 °C 29.9 in /  1013.8 hPa NNE 2.3 mph /  3.7 km/h 2.3 mph /  3.7 km/h 72 % 0 in /  0.0 mm
19:26 67.3 °F /  19.6 °C 57.9 °F /  14.4 °C 29.9 in /  1013.8 hPa ENE 3.5 mph /  5.6 km/h 3.5 mph /  5.6 km/h 72 % 0 in /  0.0 mm
19:31 67.3 °F /  19.6 °C 57.9 °F /  14.4 °C 29.9 in /  1013.8 hPa NNE 3.5 mph /  5.6 km/h 3.5 mph /  5.6 km/h 72 % 0 in /  0.0 mm
19:36 67.3 °F /  19.6 °C 57.9 °F /  14.4 °C 29.9 in /  1013.8 hPa ENE 3.1 mph /  5.0 km/h 3.1 mph /  5.0 km/h 72 % 0 in /  0.0 mm
19:41 67.6 °F /  19.8 °C 58.6 °F /  14.8 °C 29.9 in /  1013.8 hPa NNE 1.2 mph /  1.9 km/h 1.2 mph /  1.9 km/h 73 % 0 in /  0.0 mm
19:46 67.6 °F /  19.8 °C 58.3 °F /  14.6 °C 29.9 in /  1013.8 hPa NE 2.3 mph /  3.7 km/h 2.3 mph /  3.7 km/h 72 % 0 in /  0.0 mm
19:51 67.5 °F /  19.7 °C 58.1 °F /  14.5 °C 29.9 in /  1012.8 hPa North 2.3 mph /  3.7 km/h 2.3 mph /  3.7 km/h 72 % 0 in /  0.0 mm
19:56 67.5 °F /  19.7 °C 58.1 °F /  14.5 °C 29.9 in /  1012.8 hPa WNW 1.2 mph /  1.9 km/h   72 % 0 in /  0.0 mm
20:01 67.6 °F /  19.8 °C 58.3 °F /  14.6 °C 29.9 in /  1012.8 hPa ENE 1.2 mph /  1.9 km/h   72 % 0 in /  0.0 mm
20:06 67.6 °F /  19.8 °C 58.3 °F /  14.6 °C 29.9 in /  1013.8 hPa ENE 1.6 mph /  2.6 km/h 1.6 mph /  2.6 km/h 72 % 0 in /  0.0 mm
20:11 67.6 °F /  19.8 °C 58.3 °F /  14.6 °C 29.9 in /  1013.8 hPa ENE 1.6 mph /  2.6 km/h 1.6 mph /  2.6 km/h 72 % 0 in /  0.0 mm
20:16 67.5 °F /  19.7 °C 58.1 °F /  14.5 °C 29.9 in /  1013.8 hPa East 3.5 mph /  5.6 km/h 3.5 mph /  5.6 km/h 72 % 0 in /  0.0 mm
20:21 67.3 °F /  19.6 °C 57.9 °F /  14.4 °C 29.9 in /  1013.8 hPa East 1.2 mph /  1.9 km/h   72 % 0 in /  0.0 mm
20:26 67.5 °F /  19.7 °C 58.1 °F /  14.5 °C 29.9 in /  1013.8 hPa Calm     72 % 0 in /  0.0 mm
20:31 67.6 °F /  19.8 °C 58.3 °F /  14.6 °C 29.9 in /  1013.8 hPa Calm     72 % 0 in /  0.0 mm
20:36 67.5 °F /  19.7 °C 58.5 °F /  14.7 °C 29.9 in /  1012.8 hPa SSE 2.3 mph /  3.7 km/h 2.3 mph /  3.7 km/h 73 % 0 in /  0.0 mm
20:41 67.5 °F /  19.7 °C 58.5 °F /  14.7 °C 29.9 in /  1012.8 hPa WSW 1.2 mph /  1.9 km/h 1.2 mph /  1.9 km/h 73 % 0 in /  0.0 mm
20:46 67.5 °F /  19.7 °C 58.5 °F /  14.7 °C 29.9 in /  1012.8 hPa WSW 2.3 mph /  3.7 km/h 2.3 mph /  3.7 km/h 73 % 0 in /  0.0 mm
20:51 67.3 °F /  19.6 °C 58.6 °F /  14.8 °C 29.9 in /  1013.8 hPa WSW 2.3 mph /  3.7 km/h 2.3 mph /  3.7 km/h 74 % 0 in /  0.0 mm
20:56 67.1 °F /  19.5 °C 58.5 °F /  14.7 °C 29.9 in /  1013.8 hPa NE 0.9 mph /  1.4 km/h   74 % 0 in /  0.0 mm
21:01 66.7 °F /  19.3 °C 58.3 °F /  14.6 °C 29.9 in /  1013.8 hPa NE 2.3 mph /  3.7 km/h 2.3 mph /  3.7 km/h 74 % 0 in /  0.0 mm
21:06 66.6 °F /  19.2 °C 57.9 °F /  14.4 °C 29.9 in /  1012.8 hPa Calm     74 % 0 in /  0.0 mm
21:11 66.4 °F /  19.1 °C 57.6 °F /  14.2 °C 29.9 in /  1012.8 hPa ENE 2.3 mph /  3.7 km/h 2.3 mph /  3.7 km/h 73 % 0 in /  0.0 mm
21:16 66.4 °F /  19.1 °C 57.6 °F /  14.2 °C 29.9 in /  1012.8 hPa NE 1.2 mph /  1.9 km/h 1.2 mph /  1.9 km/h 73 % 0 in /  0.0 mm
21:21 66.2 °F /  19.0 °C 57.4 °F /  14.1 °C 29.9 in /  1012.8 hPa NNE 3.1 mph /  5.0 km/h 3.1 mph /  5.0 km/h 73 % 0 in /  0.0 mm
21:26 66.2 °F /  19.0 °C 57.4 °F /  14.1 °C 29.9 in /  1012.8 hPa NNE 1.2 mph /  1.9 km/h 1.2 mph /  1.9 km/h 73 % 0 in /  0.0 mm
21:31 66 °F /  18.9 °C 57.6 °F /  14.2 °C 29.9 in /  1012.8 hPa ENE 1.2 mph /  1.9 km/h   74 % 0 in /  0.0 mm
21:36 66 °F /  18.9 °C 57.6 °F /  14.2 °C 29.9 in /  1012.8 hPa Calm     74 % 0 in /  0.0 mm
21:41 65.8 °F /  18.8 °C 57.4 °F /  14.1 °C 29.9 in /  1012.8 hPa ENE 1.2 mph /  1.9 km/h 1.2 mph /  1.9 km/h 74 % 0 in /  0.0 mm
21:46 65.8 °F /  18.8 °C 57.4 °F /  14.1 °C 29.9 in /  1012.8 hPa NE 2.3 mph /  3.7 km/h 2.3 mph /  3.7 km/h 74 % 0 in /  0.0 mm
21:51 65.8 °F /  18.8 °C 57.4 °F /  14.1 °C 29.9 in /  1012.8 hPa Calm     74 % 0 in /  0.0 mm
21:56 65.8 °F /  18.8 °C 57.7 °F /  14.3 °C 29.9 in /  1012.8 hPa Calm     75 % 0 in /  0.0 mm
22:01 65.7 °F /  18.7 °C 57.6 °F /  14.2 °C 29.9 in /  1012.8 hPa NE 1.2 mph /  1.9 km/h 1.2 mph /  1.9 km/h 75 % 0 in /  0.0 mm
22:06 65.7 °F /  18.7 °C 57.6 °F /  14.2 °C 29.9 in /  1012.8 hPa Calm     75 % 0 in /  0.0 mm
22:10 61.5 °F /  16.4 °C 56.7 °F /  13.7 °C 29.9 in /  1013.8 hPa Calm     84 % 0 in /  0.0 mm
22:11 65.5 °F /  18.6 °C 57.4 °F /  14.1 °C 29.9 in /  1012.8 hPa NNE 1.2 mph /  1.9 km/h   75 % 0 in /  0.0 mm
22:16 65.5 °F /  18.6 °C 57.4 °F /  14.1 °C 29.9 in /  1012.8 hPa NE 2.3 mph /  3.7 km/h 2.3 mph /  3.7 km/h 75 % 0 in /  0.0 mm
22:20 61.7 °F /  16.5 °C 57 °F /  13.9 °C 29.9 in /  1013.8 hPa Calm   1 mph /  1.6 km/h 85 % 0 in /  0.0 mm
22:21 65.5 °F /  18.6 °C 57.7 °F /  14.3 °C 29.9 in /  1013.8 hPa NNE 2.3 mph /  3.7 km/h 2.3 mph /  3.7 km/h 76 % 0 in /  0.0 mm
22:26 65.5 °F /  18.6 °C 57.7 °F /  14.3 °C 29.9 in /  1013.8 hPa NE 2 mph /  3.2 km/h 2 mph /  3.2 km/h 76 % 0 in /  0.0 mm
22:30 61.3 °F /  16.3 °C 56.8 °F /  13.8 °C 29.9 in /  1013.8 hPa WNW 1 mph /  1.6 km/h 2 mph /  3.2 km/h 85 % 0 in /  0.0 mm
22:31 65.3 °F /  18.5 °C 57.6 °F /  14.2 °C 29.9 in /  1013.8 hPa NNE 1.2 mph /  1.9 km/h   76 % 0 in /  0.0 mm
22:36 65.3 °F /  18.5 °C 57.6 °F /  14.2 °C 29.9 in /  1013.8 hPa Calm     76 % 0 in /  0.0 mm
22:40 61 °F /  16.1 °C 56.5 °F /  13.6 °C 29.9 in /  1013.8 hPa West 2 mph /  3.2 km/h 3 mph /  4.8 km/h 85 % 0.04 in /  1.0 mm
22:41 65.3 °F /  18.5 °C 57.9 °F /  14.4 °C 29.9 in /  1013.8 hPa Calm     77 % 0 in /  0.0 mm
22:46 65.3 °F /  18.5 °C 57.9 °F /  14.4 °C 29.9 in /  1013.8 hPa Calm     77 % 0 in /  0.0 mm
22:50 60.6 °F /  15.9 °C 56.5 °F /  13.6 °C 29.9 in /  1013.8 hPa WSW 2 mph /  3.2 km/h 2 mph /  3.2 km/h 86 % 0.04 in /  1.0 mm
22:51 65.1 °F /  18.4 °C 57.7 °F /  14.3 °C 29.9 in /  1013.8 hPa Calm     77 % 0 in /  0.0 mm
22:56 65.3 °F /  18.5 °C 57.9 °F /  14.4 °C 29.9 in /  1013.8 hPa NNW 1.2 mph /  1.9 km/h 1.2 mph /  1.9 km/h 77 % 0 in /  0.0 mm
23:00 60.3 °F /  15.7 °C 56.1 °F /  13.4 °C 29.9 in /  1013.8 hPa SW 2 mph /  3.2 km/h 2 mph /  3.2 km/h 86 % 0.04 in /  1.0 mm
23:01 65.1 °F /  18.4 °C 57.7 °F /  14.3 °C 29.9 in /  1013.8 hPa NNE 1.2 mph /  1.9 km/h   77 % 0 in /  0.0 mm
23:06 65.3 °F /  18.5 °C 57.9 °F /  14.4 °C 29.9 in /  1013.8 hPa WNW 0.9 mph /  1.4 km/h   77 % 0 in /  0.0 mm
23:10 60.1 °F /  15.6 °C 56.1 °F /  13.4 °C 29.9 in /  1013.8 hPa SW 1 mph /  1.6 km/h 2 mph /  3.2 km/h 87 % 0.04 in /  1.0 mm
23:11 65.3 °F /  18.5 °C 57.9 °F /  14.4 °C 29.9 in /  1013.8 hPa Calm     77 % 0 in /  0.0 mm
23:16 65.3 °F /  18.5 °C 57.9 °F /  14.4 °C 29.9 in /  1013.8 hPa NNE 1.2 mph /  1.9 km/h 1.2 mph /  1.9 km/h 77 % 0 in /  0.0 mm
23:20 59.9 °F /  15.5 °C 55.9 °F /  13.3 °C 29.9 in /  1013.8 hPa Calm   2 mph /  3.2 km/h 87 % 0 in /  0.0 mm
23:21 65.3 °F /  18.5 °C 57.9 °F /  14.4 °C 29.9 in /  1013.8 hPa NE 2.6 mph /  4.2 km/h   77 % 0 in /  0.0 mm
23:26 65.3 °F /  18.5 °C 57.9 °F /  14.4 °C 29.9 in /  1013.8 hPa SW 1.2 mph /  1.9 km/h   77 % 0 in /  0.0 mm
23:30 59.7 °F /  15.4 °C 56.1 °F /  13.4 °C 29.9 in /  1013.8 hPa Calm   1 mph /  1.6 km/h 88 % 0 in /  0.0 mm
23:31 65.5 °F /  18.6 °C 58.1 °F /  14.5 °C 29.9 in /  1013.8 hPa WSW 1.2 mph /  1.9 km/h 1.2 mph /  1.9 km/h 77 % 0 in /  0.0 mm
23:36 65.1 °F /  18.4 °C 58.1 °F /  14.5 °C 29.9 in /  1013.8 hPa SW 1.2 mph /  1.9 km/h 1.2 mph /  1.9 km/h 78 % 0 in /  0.0 mm
23:40 59.4 °F /  15.2 °C 56.1 °F /  13.4 °C 29.9 in /  1012.8 hPa Calm   2 mph /  3.2 km/h 89 % 0.05 in /  1.3 mm
23:41 64.8 °F /  18.2 °C 58.1 °F /  14.5 °C 29.9 in /  1013.8 hPa SW 1.6 mph /  2.6 km/h   79 % 0 in /  0.0 mm
23:46 64.8 °F /  18.2 °C 58.1 °F /  14.5 °C 29.9 in /  1013.8 hPa Calm     79 % 0 in /  0.0 mm
23:50 59 °F /  15.0 °C 55.4 °F /  13.0 °C 29.9 in /  1013.8 hPa SW 2 mph /  3.2 km/h 3 mph /  4.8 km/h 88 % 0.05 in /  1.3 mm
23:51 64.6 °F /  18.1 °C 58.3 °F /  14.6 °C 29.9 in /  1012.8 hPa Calm     80 % 0 in /  0.0 mm
23:56 64.6 °F /  18.1 °C 58.3 °F /  14.6 °C 29.9 in /  1012.8 hPa Calm     80 % 0 in /  0.0 mm
Meteo Sesrovires
Elogis d' Weather Underground - 3.5 mb

Guio original per  Jim McMurry - jmcmurry@mwt.net Adaptat per a la plantilla per  Wim van der Kuil - Leuven-Template.eu

Trobareu la nostra informacio del temps tambe a:

Weather Underground

AWEKAS